Station: Mount Isa

  Atmospheric Gas Attenuation - ITU Rec 676-11   --------------- db/100km ---------------
Date Time Temp RH % AH g/m3 Dew Point Wind Direction Speed kph Gust kph Barometer mB Rainfall Since 9am 24GHz 47GHz 76GHz 122GHz 134GHz 241GHz
27 02:00 26.3 20 4.95 1.6 15 17 1004.9 0 11.5 17.6 22.3 57.9 45.5 154.4
27 01:50 26.5 20 5.01 1.7 13 15 1005 0 11.6 17.7 22.4 58.3 46.0 156.1
27 01:40 26.6 20 5.03 1.8 13 15 1005.1 0 11.6 17.7 22.5 58.4 46.1 156.6
27 01:30 26.8 19 4.84 1.3 15 17 1005.1 0 11.2 17.4 21.9 56.7 44.2 149.8
27 01:20 28.2 17 4.67 0.9 15 15 1005.2 0 10.8 17.0 21.0 54.5 41.9 141.8
27 01:10 28.3 16 4.42 0.1 15 15 1005.4 0 10.3 16.7 20.3 52.6 39.5 133.4
27 01:00 28.3 16 4.42 0.1 17 19 1005.5 0 10.3 16.7 20.3 52.6 39.5 133.4
27 00:50 28.5 16 4.47 0.3 15 17 1005.5 0 10.4 16.7 20.4 52.9 39.9 134.8
27 00:40 28.5 16 4.47 0.3 17 17 1005.6 0 10.4 16.7 20.4 52.9 39.9 134.8
27 00:30 28.8 16 4.55 0.5 17 19 1005.6 0 10.6 16.7 20.5 53.3 40.5 136.9
27 00:20 29 15 4.31 -0.2 17 17 1005.6 0 10.1 16.4 19.8 51.4 38.2 128.8
27 00:10 29.3 15 4.38 0 15 17 1005.6 0 10.2 16.4 20.0 51.7 38.7 130.6
27 00:00 29.8 14 4.2 -0.5 15 17 1005.6 0 9.8 16.2 19.4 50.1 36.8 124.1
26 23:50 29.5 15 4.43 0.2 13 15 1005.6 0 10.3 16.5 20.1 52.0 39.1 131.9
26 23:40 29.7 16 4.77 1.2 13 13 1005.7 0 11.0 16.8 21.0 54.4 42.1 142.6
26 23:30 28.6 21 5.9 4.2 9 11 1005.7 0 13.3 18.4 24.5 63.8 53.4 182.5
26 23:20 24.9 43 9.84 11.5 7 9 1005.7 0 21.7 24.4 38.7 101.9 99.3 343.1
26 23:10 25.1 38 8.8 9.8 0 0 1005.7 0 19.5 22.9 35.0 91.9 87.0 300.1
26 23:00 24.6 45 10.13 11.9 2 6 1005.6 0 22.3 24.9 39.9 105.1 103.1 356.4
26 22:50 25 41 9.44 10.8 6 6 1005.7 0 20.8 23.8 37.3 98.0 94.5 326.2
26 22:40 25.2 41 9.54 11 0 0 1005.6 0 21.0 23.9 37.5 98.7 95.4 329.5
26 22:30 26.4 38 9.46 10.9 6 17 1005.6 0 20.8 23.5 36.7 96.5 93.1 321.4
26 22:20 26.7 39 9.87 11.6 0 0 1005.5 0 21.6 24.0 38.0 99.9 97.4 336.7
26 22:10 26.4 37 9.21 10.5 0 0 1005.4 0 20.3 23.1 35.8 94.2 90.2 311.4
26 22:00 27 35 9.01 10.2 0 0 1005.2 0 19.8 22.7 34.9 91.6 87.3 301.3
26 21:50 27.4 34 8.95 10.2 0 0 1005.2 0 19.7 22.5 34.5 90.6 86.2 297.5
26 21:40 28.5 33 9.22 10.7 0 0 1005.1 0 20.2 22.6 35.0 91.8 88.0 303.9
26 21:30 27.5 34 9 10.2 6 9 1005.1 0 19.8 22.6 34.6 91.0 86.6 299.0
26 21:20 27.2 36 9.37 10.8 6 6 1005 0 20.6 23.1 36.0 94.7 91.1 314.6
26 21:10 26.4 40 9.96 11.7 9 9 1004.9 0 21.8 24.2 38.4 101.1 98.8 341.4
26 21:00 26.7 39 9.87 11.6 2 11 1004.7 0 21.6 24.0 38.0 99.8 97.3 336.5
26 20:50 27 39 10.04 11.9 0 0 1004.6 0 22.0 24.1 38.4 101.1 98.9 342.0
26 20:40 26.9 37 9.47 11 0 0 1004.4 0 20.8 23.3 36.5 95.9 92.5 319.6
26 20:30 27.6 36 9.58 11.2 0 0 1004.2 0 21.0 23.3 36.5 96.0 92.9 321.1
26 20:20 27.8 37 9.95 11.8 0 0 1004.1 0 21.8 23.8 37.7 99.2 96.9 335.0
26 20:10 28.1 33 9.02 10.3 0 0 1004 0 19.8 22.4 34.4 90.4 86.1 297.3
26 20:00 28.7 30 8.48 9.4 6 9 1003.9 0 18.7 21.5 32.4 85.0 79.7 274.7
26 19:50 29.7 28 8.36 9.3 7 7 1003.8 0 18.4 21.1 31.6 82.9 77.4 267.0
26 19:40 30.2 28 8.58 9.7 9 9 1003.6 0 18.8 21.3 32.1 84.3 79.3 273.4
26 19:30 30.9 25 7.96 8.6 9 13 1003.6 0 17.5 20.4 29.9 78.4 72.2 248.7
26 19:20 31.6 24 7.93 8.6 9 11 1003.4 0 17.4 20.2 29.6 77.5 71.3 245.5
26 19:10 32.1 22 7.47 7.7 11 11 1003.3 0 16.4 19.5 28.0 73.3 66.2 227.9
26 19:00 32.8 21 7.4 7.6 9 13 1003.2 0 16.3 19.3 27.6 72.2 65.0 223.6
26 18:50 33.2 20 7.2 7.2 9 9 1003 0 15.8 18.9 26.8 70.2 62.7 215.7
26 18:40 33.7 19 7.02 6.9 11 13 1002.9 0 15.5 18.6 26.2 68.4 60.6 208.4
26 18:30 33.9 21 7.84 8.5 11 15 1002.8 0 17.1 19.6 28.5 74.7 68.4 235.7
26 18:20 34.2 19 7.21 7.3 11 13 1002.5 0 15.8 18.7 26.5 69.5 62.1 213.4
26 18:10 34.4 19 7.28 7.5 11 13 1002.4 0 16.0 18.8 26.7 69.8 62.6 215.3
26 18:00 34.5 18 6.94 6.7 13 17 1002.4 0 15.3 18.4 25.7 67.1 59.3 203.7
26 17:50 35.5 15 6.09 4.9 9 11 1002.4 0 13.5 17.2 23.0 60.1 50.8 174.0
26 17:40 34.9 15 5.9 4.4 13 15 1002.4 0 13.1 17.1 22.7 59.1 49.5 169.1
26 17:30 34.9 18 7.08 7.1 6 13 1002.4 0 15.5 18.5 25.9 67.9 60.3 207.4
26 17:20 35.2 17 6.79 6.5 6 7 1002.4 0 14.9 18.1 25.0 65.5 57.4 197.1
26 17:10 35.6 19 7.75 8.4 7 7 1002.3 0 16.9 19.1 27.6 72.5 66.1 227.9
26 17:00 34.9 16 6.3 5.4 13 15 1002.2 0 13.9 17.6 23.8 62.0 53.1 181.9
26 16:50 35.1 17 6.76 6.4 13 13 1002.2 0 14.9 18.0 25.0 65.3 57.2 196.3
26 16:40 35.5 16 6.5 5.8 9 9 1002.3 0 14.3 17.7 24.1 63.1 54.5 187.0
26 16:30 35.8 19 7.83 8.6 9 19 1002.2 0 17.0 19.2 27.8 72.9 66.7 230.0
26 16:20 36.4 16 6.8 6.6 6 6 1002.2 0 14.9 17.8 24.7 64.6 56.7 194.7
26 16:10 36.3 17 7.19 7.4 4 6 1002.2 0 15.7 18.3 25.8 67.6 60.3 207.6
26 16:00 35.4 16 6.46 5.8 9 13 1002.3 0 14.3 17.6 24.1 62.8 54.2 186.0
26 15:50 35.7 17 6.97 6.9 7 9 1002.3 0 15.3 18.2 25.4 66.4 58.7 201.8
26 15:40 35.5 17 6.9 6.7 13 15 1002.3 0 15.1 18.1 25.3 66.1 58.2 200.0
26 15:30 36.2 16 6.73 6.4 17 24 1002.4 0 14.8 17.8 24.6 64.3 56.2 192.9
26 15:20 35.2 17 6.79 6.5 15 19 1002.6 0 14.9 18.1 25.0 65.5 57.4 197.2
26 15:10 35.1 18 7.16 7.2 9 11 1002.8 0 15.7 18.5 26.1 68.4 61.0 209.6
26 15:00 35.1 21 8.35 9.5 7 15 1002.9 0 18.1 19.9 29.6 77.6 72.4 249.8
26 14:50 34.6 18 6.97 6.8 11 13 1003 0 15.3 18.4 25.7 67.3 59.5 204.6
26 14:40 34.6 18 6.97 6.8 9 11 1003.1 0 15.3 18.4 25.7 67.3 59.5 204.6
26 14:30 34.9 18 7.08 7.1 13 22 1003.2 0 15.5 18.5 26.0 67.9 60.4 207.5
26 14:20 34.9 20 7.87 8.6 7 9 1003.3 0 17.1 19.4 28.3 74.1 67.9 234.0
26 14:10 34.5 20 7.71 8.3 11 13 1003.5 0 16.8 19.3 27.9 73.2 66.7 229.7
26 14:00 34.3 21 8.01 8.8 11 19 1003.6 0 17.5 19.7 28.9 75.7 69.8 240.5
26 13:50 34.3 21 8.01 8.8 11 13 1003.7 0 17.5 19.7 28.9 75.7 69.8 240.6
26 13:40 34.1 21 7.92 8.7 11 15 1004 0 17.3 19.7 28.7 75.2 69.1 238.1
26 13:30 34.1 20 7.55 8 15 28 1004.1 0 16.5 19.2 27.6 72.3 65.5 225.5
26 13:20 34.3 20 7.63 8.1 11 11 1004.3 0 16.7 19.3 27.8 72.8 66.1 227.7
26 13:10 33.7 20 7.39 7.6 6 15 1004.5 0 16.2 19.1 27.3 71.4 64.3 221.2
26 13:00 33.7 21 7.76 8.3 11 19 1004.6 0 17.0 19.6 28.4 74.3 67.9 233.8
26 12:50 33.5 20 7.31 7.5 13 19 1004.7 0 16.1 19.1 27.1 71.0 63.7 219.0
26 12:40 33.2 20 7.2 7.2 15 20 1004.9 0 15.8 19.0 26.9 70.4 62.8 216.1
26 12:30 33.3 19 6.87 6.6 13 26 1005 0 15.2 18.6 25.9 67.7 59.6 204.7
26 12:20 33.3 18 6.51 5.8 17 20 1005.2 0 14.4 18.2 24.9 65.0 56.2 192.7
26 12:10 32.9 17 6.02 4.6 15 17 1005.4 0 13.4 17.7 23.6 61.6 51.9 177.5
26 12:00 33.2 16 5.76 4 15 24 1005.5 0 12.9 17.3 22.8 59.4 49.3 168.4
26 11:50 32.5 17 5.9 4.3 17 20 1005.7 0 13.2 17.6 23.4 61.0 51.0 174.4
26 11:40 32.6 17 5.93 4.4 20 24 1005.7 0 13.3 17.6 23.5 61.1 51.2 175.2
26 11:30 31.9 17 5.71 3.8 24 30 1005.8 0 12.8 17.5 23.0 60.0 49.6 169.4
26 11:20 31.7 18 5.98 4.5 24 30 1005.8 0 13.4 17.9 23.8 62.2 52.3 178.7
26 11:10 31.5 17 5.59 3.5 26 30 1006.1 0 12.6 17.5 22.8 59.4 48.7 166.3
26 11:00 31 18 5.76 3.9 24 30 1006.3 0 13.0 17.8 23.4 61.0 50.6 172.9
26 10:50 30.6 19 5.95 4.4 28 28 1006.3 0 13.4 18.1 24.1 62.8 52.7 180.1
26 10:40 29.9 17 5.13 2.2 26 30 1006.4 0 11.7 17.2 21.9 57.0 45.4 154.2
26 10:30 28.9 17 4.86 1.4 17 22 1006.5 0 11.2 17.1 21.4 55.6 43.4 147.0
26 10:20 27.6 16 4.26 -0.5 19 22 1006.6 0 10.0 16.6 20.0 51.9 38.4 129.4
26 10:10 27.3 15 3.93 -1.6 20 26 1006.6 0 9.3 16.3 19.2 49.6 35.5 119.1
26 10:00 26.8 16 4.07 -1.1 15 20 1006.7 0 9.6 16.5 19.7 51.0 37.0 124.4
26 09:50 26.2 16 3.94 -1.6 13 13 1006.7 0 9.4 16.5 19.5 50.3 36.0 121.0
26 09:40 26 16 3.9 -1.7 15 19 1006.7 0 9.3 16.5 19.4 50.2 35.8 119.9
26 09:30 26 15 3.65 -2.6 19 26 1006.7 0 8.8 16.2 18.7 48.3 33.4 111.7

Last Refresh: 27-Feb-2021 02:48:40

Most of the information presented on this site is sourced from the Bureau of Meteorology.  Copyright in all material sourced from the Bureau of Meteorology resides with the Commonwealth of Australia.